sensor_id;sensor_type;location;lat;lon;timestamp;pressure;altitude;pressure_sealevel;temperature;humidity
52291;BME280;39663;45.432;28.050;2023-07-20T00:05:06;100442.15;;;26.90;43.35
52291;BME280;39663;45.432;28.050;2023-07-20T00:05:38;100442.23;;;27.02;43.30
52291;BME280;39663;45.432;28.050;2023-07-20T00:06:09;100442.14;;;26.98;43.49
52291;BME280;39663;45.432;28.050;2023-07-20T00:06:40;100441.67;;;27.09;43.60
52291;BME280;39663;45.432;28.050;2023-07-20T00:07:12;100439.44;;;27.34;43.05
52291;BME280;39663;45.432;28.050;2023-07-20T00:07:43;100439.64;;;27.33;43.19
52291;BME280;39663;45.432;28.050;2023-07-20T00:08:15;100439.09;;;27.38;44.09
52291;BME280;39663;45.432;28.050;2023-07-20T00:08:47;100437.20;;;27.39;41.61
52291;BME280;39663;45.432;28.050;2023-07-20T00:09:19;100436.84;;;27.38;42.56
52291;BME280;39663;45.432;28.050;2023-07-20T00:09:50;100436.20;;;27.20;42.24
52291;BME280;39663;45.432;28.050;2023-07-20T00:10:22;100437.78;;;27.39;41.93
52291;BME280;39663;45.432;28.050;2023-07-20T00:10:53;100436.19;;;27.24;41.63
52291;BME280;39663;45.432;28.050;2023-07-20T00:11:26;100434.23;;;27.39;42.88
52291;BME280;39663;45.432;28.050;2023-07-20T00:11:58;100433.17;;;27.19;42.86
52291;BME280;39663;45.432;28.050;2023-07-20T00:12:29;100434.35;;;27.16;42.87
52291;BME280;39663;45.432;28.050;2023-07-20T00:13:01;100435.14;;;27.38;42.39
52291;BME280;39663;45.432;28.050;2023-07-20T00:13:32;100435.46;;;27.27;43.13
52291;BME280;39663;45.432;28.050;2023-07-20T00:14:04;100435.47;;;27.21;42.10
52291;BME280;39663;45.432;28.050;2023-07-20T00:14:36;100436.10;;;27.41;42.12
52291;BME280;39663;45.432;28.050;2023-07-20T00:15:08;100436.39;;;27.23;41.73
52291;BME280;39663;45.432;28.050;2023-07-20T00:15:40;100436.53;;;27.39;42.25
52291;BME280;39663;45.432;28.050;2023-07-20T00:16:11;100437.99;;;27.29;42.82
52291;BME280;39663;45.432;28.050;2023-07-20T00:16:43;100436.17;;;27.20;42.38
52291;BME280;39663;45.432;28.050;2023-07-20T00:17:14;100435.51;;;27.42;41.69
52291;BME280;39663;45.432;28.050;2023-07-20T00:17:46;100435.18;;;27.23;42.54
52291;BME280;39663;45.432;28.050;2023-07-20T00:18:17;100433.78;;;27.41;41.94
52291;BME280;39663;45.432;28.050;2023-07-20T00:18:49;100433.47;;;27.37;42.18
52291;BME280;39663;45.432;28.050;2023-07-20T00:19:20;100434.41;;;27.35;42.32
52291;BME280;39663;45.432;28.050;2023-07-20T00:19:52;100435.28;;;27.36;42.48
52291;BME280;39663;45.432;28.050;2023-07-20T00:20:24;100435.45;;;27.17;42.29
52291;BME280;39663;45.432;28.050;2023-07-20T00:20:55;100433.79;;;27.21;41.42
52291;BME280;39663;45.432;28.050;2023-07-20T00:21:26;100434.71;;;27.22;42.60
52291;BME280;39663;45.432;28.050;2023-07-20T00:21:58;100435.18;;;27.41;42.76
52291;BME280;39663;45.432;28.050;2023-07-20T00:22:29;100435.91;;;27.42;42.20
52291;BME280;39663;45.432;28.050;2023-07-20T00:23:01;100435.42;;;27.22;43.20
52291;BME280;39663;45.432;28.050;2023-07-20T00:23:32;100436.78;;;27.16;42.84
52291;BME280;39663;45.432;28.050;2023-07-20T00:24:04;100434.72;;;27.18;41.99
52291;BME280;39663;45.432;28.050;2023-07-20T00:24:36;100438.01;;;27.19;42.33
52291;BME280;39663;45.432;28.050;2023-07-20T00:25:08;100437.04;;;27.23;42.00
52291;BME280;39663;45.432;28.050;2023-07-20T00:25:39;100437.11;;;27.24;42.20
52291;BME280;39663;45.432;28.050;2023-07-20T00:26:11;100438.32;;;27.21;41.82
52291;BME280;39663;45.432;28.050;2023-07-20T00:26:42;100439.00;;;27.17;42.79
52291;BME280;39663;45.432;28.050;2023-07-20T00:27:14;100438.58;;;27.32;42.93
52291;BME280;39663;45.432;28.050;2023-07-20T00:27:45;100440.00;;;27.15;42.15
52291;BME280;39663;45.432;28.050;2023-07-20T00:28:17;100438.51;;;27.36;41.79
52291;BME280;39663;45.432;28.050;2023-07-20T00:28:50;100438.42;;;27.21;41.81
52291;BME280;39663;45.432;28.050;2023-07-20T00:29:22;100437.76;;;27.21;42.23
52291;BME280;39663;45.432;28.050;2023-07-20T00:29:53;100437.07;;;27.34;42.86
52291;BME280;39663;45.432;28.050;2023-07-20T00:30:25;100436.31;;;27.33;42.33
52291;BME280;39663;45.432;28.050;2023-07-20T00:30:56;100435.51;;;27.22;42.20
52291;BME280;39663;45.432;28.050;2023-07-20T00:31:27;100434.13;;;27.24;41.76
52291;BME280;39663;45.432;28.050;2023-07-20T00:31:59;100433.43;;;27.23;41.95
52291;BME280;39663;45.432;28.050;2023-07-20T00:32:30;100434.76;;;27.15;42.44
52291;BME280;39663;45.432;28.050;2023-07-20T00:33:02;100434.37;;;27.17;41.98
52291;BME280;39663;45.432;28.050;2023-07-20T00:33:33;100432.81;;;27.23;41.31
52291;BME280;39663;45.432;28.050;2023-07-20T00:34:04;100432.34;;;27.16;41.37
52291;BME280;39663;45.432;28.050;2023-07-20T00:34:36;100433.04;;;27.39;41.84
52291;BME280;39663;45.432;28.050;2023-07-20T00:35:08;100433.31;;;27.20;41.66
52291;BME280;39663;45.432;28.050;2023-07-20T00:35:39;100434.57;;;27.11;42.09
52291;BME280;39663;45.432;28.050;2023-07-20T00:36:11;100432.44;;;27.31;41.60
52291;BME280;39663;45.432;28.050;2023-07-20T00:36:42;100432.87;;;27.32;41.79
52291;BME280;39663;45.432;28.050;2023-07-20T00:37:14;100433.02;;;26.88;41.57
52291;BME280;39663;45.432;28.050;2023-07-20T00:37:45;100431.10;;;26.78;41.49
52291;BME280;39663;45.432;28.050;2023-07-20T00:38:17;100429.68;;;26.84;42.29
52291;BME280;39663;45.432;28.050;2023-07-20T00:38:48;100433.21;;;27.20;42.21
52291;BME280;39663;45.432;28.050;2023-07-20T00:39:20;100433.19;;;26.85;42.60
52291;BME280;39663;45.432;28.050;2023-07-20T00:39:52;100433.98;;;27.27;42.74
52291;BME280;39663;45.432;28.050;2023-07-20T00:40:24;100433.06;;;27.10;43.07
52291;BME280;39663;45.432;28.050;2023-07-20T00:40:55;100430.45;;;27.15;42.65
52291;BME280;39663;45.432;28.050;2023-07-20T00:41:27;100431.65;;;26.92;42.72
52291;BME280;39663;45.432;28.050;2023-07-20T00:41:59;100433.22;;;27.18;42.70
52291;BME280;39663;45.432;28.050;2023-07-20T00:42:30;100434.40;;;26.96;42.40
52291;BME280;39663;45.432;28.050;2023-07-20T00:43:01;100434.35;;;26.93;42.90
52291;BME280;39663;45.432;28.050;2023-07-20T00:43:33;100437.94;;;27.01;42.55
52291;BME280;39663;45.432;28.050;2023-07-20T00:44:05;100438.41;;;27.01;42.07
52291;BME280;39663;45.432;28.050;2023-07-20T00:44:37;100440.26;;;27.22;42.57
52291;BME280;39663;45.432;28.050;2023-07-20T00:45:08;100442.88;;;27.05;42.78
52291;BME280;39663;45.432;28.050;2023-07-20T00:45:40;100445.08;;;27.23;42.36
52291;BME280;39663;45.432;28.050;2023-07-20T00:46:12;100447.15;;;27.20;42.76
52291;BME280;39663;45.432;28.050;2023-07-20T00:46:45;100448.50;;;26.97;42.84
52291;BME280;39663;45.432;28.050;2023-07-20T00:47:16;100448.79;;;27.02;41.96
52291;BME280;39663;45.432;28.050;2023-07-20T00:47:48;100449.46;;;27.06;41.84
52291;BME280;39663;45.432;28.050;2023-07-20T00:48:20;100449.02;;;27.01;41.91
52291;BME280;39663;45.432;28.050;2023-07-20T00:48:52;100449.30;;;27.21;42.32
52291;BME280;39663;45.432;28.050;2023-07-20T00:49:23;100449.13;;;26.98;42.25
52291;BME280;39663;45.432;28.050;2023-07-20T00:49:55;100449.22;;;26.99;41.85
52291;BME280;39663;45.432;28.050;2023-07-20T00:50:27;100446.59;;;27.15;41.85
52291;BME280;39663;45.432;28.050;2023-07-20T00:51:00;100445.79;;;27.12;41.88
52291;BME280;39663;45.432;28.050;2023-07-20T00:51:32;100445.10;;;27.10;41.80
52291;BME280;39663;45.432;28.050;2023-07-20T00:52:07;100444.80;;;26.92;41.84
52291;BME280;39663;45.432;28.050;2023-07-20T00:52:39;100443.44;;;26.82;42.00
52291;BME280;39663;45.432;28.050;2023-07-20T00:53:10;100441.51;;;26.96;41.93
52291;BME280;39663;45.432;28.050;2023-07-20T00:53:42;100440.40;;;26.68;41.73
52291;BME280;39663;45.432;28.050;2023-07-20T00:54:14;100438.86;;;26.73;41.56
52291;BME280;39663;45.432;28.050;2023-07-20T00:54:47;100437.81;;;26.96;41.58
52291;BME280;39663;45.432;28.050;2023-07-20T00:55:19;100436.07;;;26.76;41.55
52291;BME280;39663;45.432;28.050;2023-07-20T00:55:51;100435.42;;;26.91;41.77
52291;BME280;39663;45.432;28.050;2023-07-20T00:56:22;100433.49;;;26.87;41.97
52291;BME280;39663;45.432;28.050;2023-07-20T00:56:54;100432.09;;;26.82;41.78
52291;BME280;39663;45.432;28.050;2023-07-20T00:57:26;100430.61;;;26.67;41.78
52291;BME280;39663;45.432;28.050;2023-07-20T00:57:59;100429.43;;;26.82;41.72
52291;BME280;39663;45.432;28.050;2023-07-20T00:58:31;100426.46;;;26.89;41.64
52291;BME280;39663;45.432;28.050;2023-07-20T00:59:07;100423.44;;;26.82;41.62
52291;BME280;39663;45.432;28.050;2023-07-20T00:59:39;100423.96;;;26.83;41.51
52291;BME280;39663;45.432;28.050;2023-07-20T01:00:11;100422.14;;;26.84;41.56
52291;BME280;39663;45.432;28.050;2023-07-20T01:00:44;100419.88;;;26.74;41.68
52291;BME280;39663;45.432;28.050;2023-07-20T01:01:15;100419.81;;;26.49;41.81
52291;BME280;39663;45.432;28.050;2023-07-20T01:01:47;100419.32;;;26.33;41.72
52291;BME280;39663;45.432;28.050;2023-07-20T01:02:32;100418.52;;;26.49;41.72
52291;BME280;39663;45.432;28.050;2023-07-20T01:03:03;100419.22;;;26.41;42.29
52291;BME280;39663;45.432;28.050;2023-07-20T01:03:35;100420.32;;;26.43;41.92
52291;BME280;39663;45.432;28.050;2023-07-20T01:04:06;100420.07;;;26.48;41.90
52291;BME280;39663;45.432;28.050;2023-07-20T01:04:38;100419.54;;;26.43;41.93
52291;BME280;39663;45.432;28.050;2023-07-20T01:05:09;100419.56;;;26.16;42.10
52291;BME280;39663;45.432;28.050;2023-07-20T01:05:47;100419.22;;;26.31;42.65
52291;BME280;39663;45.432;28.050;2023-07-20T01:06:29;100420.74;;;26.32;42.42
52291;BME280;39663;45.432;28.050;2023-07-20T01:07:08;100418.61;;;26.33;42.26
52291;BME280;39663;45.432;28.050;2023-07-20T01:07:46;100419.15;;;26.18;42.78
52291;BME280;39663;45.432;28.050;2023-07-20T01:08:27;100418.88;;;26.40;42.49
52291;BME280;39663;45.432;28.050;2023-07-20T01:09:08;100418.26;;;26.67;42.93
52291;BME280;39663;45.432;28.050;2023-07-20T01:09:48;100416.22;;;26.76;41.76
52291;BME280;39663;45.432;28.050;2023-07-20T01:10:29;100416.32;;;26.55;41.61
52291;BME280;39663;45.432;28.050;2023-07-20T01:11:10;100417.11;;;26.63;41.63
52291;BME280;39663;45.432;28.050;2023-07-20T01:11:52;100415.83;;;26.92;41.49
52291;BME280;39663;45.432;28.050;2023-07-20T01:12:30;100416.10;;;26.62;41.68
52291;BME280;39663;45.432;28.050;2023-07-20T01:13:07;100418.84;;;26.77;41.95
52291;BME280;39663;45.432;28.050;2023-07-20T01:13:40;100416.87;;;26.67;41.96
52291;BME280;39663;45.432;28.050;2023-07-20T01:14:12;100417.49;;;26.62;42.01
52291;BME280;39663;45.432;28.050;2023-07-20T01:14:45;100418.79;;;26.39;42.04
52291;BME280;39663;45.432;28.050;2023-07-20T01:15:17;100415.87;;;26.62;42.54
52291;BME280;39663;45.432;28.050;2023-07-20T01:15:50;100415.76;;;26.38;42.51
52291;BME280;39663;45.432;28.050;2023-07-20T01:16:21;100414.81;;;26.70;42.50
52291;BME280;39663;45.432;28.050;2023-07-20T01:16:52;100413.12;;;26.72;42.56
52291;BME280;39663;45.432;28.050;2023-07-20T01:17:24;100411.46;;;26.79;42.20
52291;BME280;39663;45.432;28.050;2023-07-20T01:17:55;100409.42;;;26.51;42.38
52291;BME280;39663;45.432;28.050;2023-07-20T01:18:27;100407.60;;;26.76;42.43
52291;BME280;39663;45.432;28.050;2023-07-20T01:18:58;100406.86;;;26.66;42.29
52291;BME280;39663;45.432;28.050;2023-07-20T01:19:30;100404.78;;;26.54;42.30
52291;BME280;39663;45.432;28.050;2023-07-20T01:20:01;100404.71;;;26.56;42.11
52291;BME280;39663;45.432;28.050;2023-07-20T01:20:34;100404.80;;;26.56;42.25
52291;BME280;39663;45.432;28.050;2023-07-20T01:21:09;100404.42;;;26.73;42.17
52291;BME280;39663;45.432;28.050;2023-07-20T01:21:50;100402.35;;;26.77;42.13
52291;BME280;39663;45.432;28.050;2023-07-20T01:22:38;100402.26;;;26.57;42.15
52291;BME280;39663;45.432;28.050;2023-07-20T01:23:35;100399.79;;;26.74;42.05
52291;BME280;39663;45.432;28.050;2023-07-20T01:24:28;100399.76;;;26.72;42.07
52291;BME280;39663;45.432;28.050;2023-07-20T01:25:21;100396.48;;;26.49;42.14
52291;BME280;39663;45.432;28.050;2023-07-20T01:26:08;100396.58;;;26.43;42.17
52291;BME280;39663;45.432;28.050;2023-07-20T01:27:03;100395.71;;;26.55;42.17
52291;BME280;39663;45.432;28.050;2023-07-20T01:28:37;100394.96;;;26.54;42.28
52291;BME280;39663;45.432;28.050;2023-07-20T01:29:27;100392.09;;;26.44;42.34
52291;BME280;39663;45.432;28.050;2023-07-20T01:30:19;100391.86;;;26.17;42.77
52291;BME280;39663;45.432;28.050;2023-07-20T01:31:24;100390.51;;;26.40;43.19
52291;BME280;39663;45.432;28.050;2023-07-20T01:31:57;100390.49;;;26.16;42.90
52291;BME280;39663;45.432;28.050;2023-07-20T01:32:30;100390.89;;;26.23;42.78
52291;BME280;39663;45.432;28.050;2023-07-20T01:33:03;100391.96;;;26.30;42.65
52291;BME280;39663;45.432;28.050;2023-07-20T01:33:34;100392.15;;;26.29;42.62
52291;BME280;39663;45.432;28.050;2023-07-20T01:34:08;100392.81;;;26.22;42.89
52291;BME280;39663;45.432;28.050;2023-07-20T01:34:41;100395.54;;;26.37;43.19
52291;BME280;39663;45.432;28.050;2023-07-20T01:35:14;100395.20;;;26.13;42.92
52291;BME280;39663;45.432;28.050;2023-07-20T01:35:53;100399.16;;;26.07;43.05
52291;BME280;39663;45.432;28.050;2023-07-20T01:36:28;100402.75;;;26.04;43.09
52291;BME280;39663;45.432;28.050;2023-07-20T01:37:01;100403.37;;;26.10;43.04
52291;BME280;39663;45.432;28.050;2023-07-20T01:37:34;100403.84;;;26.22;42.84
52291;BME280;39663;45.432;28.050;2023-07-20T01:38:06;100405.78;;;26.28;42.67
52291;BME280;39663;45.432;28.050;2023-07-20T01:38:38;100407.02;;;26.29;42.59
52291;BME280;39663;45.432;28.050;2023-07-20T01:39:10;100408.59;;;26.30;42.66
52291;BME280;39663;45.432;28.050;2023-07-20T01:39:43;100410.66;;;26.32;42.59
52291;BME280;39663;45.432;28.050;2023-07-20T01:40:16;100410.38;;;26.29;42.81
52291;BME280;39663;45.432;28.050;2023-07-20T01:40:48;100410.90;;;26.37;42.78
52291;BME280;39663;45.432;28.050;2023-07-20T01:41:20;100410.34;;;26.32;42.85
52291;BME280;39663;45.432;28.050;2023-07-20T01:41:52;100410.39;;;26.52;42.87
52291;BME280;39663;45.432;28.050;2023-07-20T01:42:24;100410.00;;;26.75;42.90
52291;BME280;39663;45.432;28.050;2023-07-20T01:42:55;100406.78;;;26.22;43.08
52291;BME280;39663;45.432;28.050;2023-07-20T01:43:27;100406.65;;;26.43;43.33
52291;BME280;39663;45.432;28.050;2023-07-20T01:43:59;100407.91;;;26.12;43.18
52291;BME280;39663;45.432;28.050;2023-07-20T01:44:30;100404.66;;;26.18;43.22
52291;BME280;39663;45.432;28.050;2023-07-20T01:45:02;100407.29;;;26.59;43.30
52291;BME280;39663;45.432;28.050;2023-07-20T01:45:33;100410.11;;;26.17;43.30
52291;BME280;39663;45.432;28.050;2023-07-20T01:46:05;100408.45;;;26.09;43.29
52291;BME280;39663;45.432;28.050;2023-07-20T01:46:36;100410.17;;;25.92;43.63
52291;BME280;39663;45.432;28.050;2023-07-20T01:47:08;100409.66;;;25.85;43.95
52291;BME280;39663;45.432;28.050;2023-07-20T01:47:39;100412.13;;;26.03;43.59
52291;BME280;39663;45.432;28.050;2023-07-20T01:48:11;100413.21;;;26.03;43.42
52291;BME280;39663;45.432;28.050;2023-07-20T01:48:42;100411.85;;;26.13;43.60
52291;BME280;39663;45.432;28.050;2023-07-20T01:49:16;100414.25;;;26.11;43.81
52291;BME280;39663;45.432;28.050;2023-07-20T01:49:47;100416.81;;;26.05;43.43
52291;BME280;39663;45.432;28.050;2023-07-20T01:50:19;100415.72;;;26.01;43.36
52291;BME280;39663;45.432;28.050;2023-07-20T01:50:50;100414.83;;;26.01;43.46
52291;BME280;39663;45.432;28.050;2023-07-20T01:51:22;100414.45;;;26.08;43.38
52291;BME280;39663;45.432;28.050;2023-07-20T01:51:53;100414.54;;;26.25;43.56
52291;BME280;39663;45.432;28.050;2023-07-20T01:52:25;100414.31;;;26.09;43.41
52291;BME280;39663;45.432;28.050;2023-07-20T01:52:56;100411.62;;;26.35;43.07
52291;BME280;39663;45.432;28.050;2023-07-20T01:53:28;100411.69;;;26.42;43.23
52291;BME280;39663;45.432;28.050;2023-07-20T01:53:59;100412.00;;;26.32;42.48
52291;BME280;39663;45.432;28.050;2023-07-20T01:54:31;100412.50;;;26.57;42.66
52291;BME280;39663;45.432;28.050;2023-07-20T01:55:03;100411.09;;;26.44;42.12
52291;BME280;39663;45.432;28.050;2023-07-20T01:55:35;100413.50;;;26.34;42.53
52291;BME280;39663;45.432;28.050;2023-07-20T01:56:06;100413.58;;;26.42;42.42
52291;BME280;39663;45.432;28.050;2023-07-20T01:56:38;100411.57;;;26.44;42.06
52291;BME280;39663;45.432;28.050;2023-07-20T01:57:09;100411.83;;;26.39;42.26
52291;BME280;39663;45.432;28.050;2023-07-20T01:57:41;100411.58;;;26.45;42.51
52291;BME280;39663;45.432;28.050;2023-07-20T01:58:12;100410.80;;;26.54;41.89
52291;BME280;39663;45.432;28.050;2023-07-20T01:58:44;100409.81;;;26.45;42.39
52291;BME280;39663;45.432;28.050;2023-07-20T01:59:15;100409.73;;;26.56;41.95
52291;BME280;39663;45.432;28.050;2023-07-20T01:59:47;100406.96;;;26.52;42.00
52291;BME280;39663;45.432;28.050;2023-07-20T02:00:18;100407.33;;;26.56;42.24
52291;BME280;39663;45.432;28.050;2023-07-20T02:00:50;100405.80;;;26.52;42.23
52291;BME280;39663;45.432;28.050;2023-07-20T02:01:21;100405.55;;;26.46;42.10
52291;BME280;39663;45.432;28.050;2023-07-20T02:01:53;100404.63;;;26.25;42.14
52291;BME280;39663;45.432;28.050;2023-07-20T02:02:27;100402.67;;;26.39;42.22
52291;BME280;39663;45.432;28.050;2023-07-20T02:02:58;100402.16;;;26.45;42.02
52291;BME280;39663;45.432;28.050;2023-07-20T02:03:30;100404.63;;;26.38;42.08
52291;BME280;39663;45.432;28.050;2023-07-20T02:04:01;100405.08;;;26.37;41.92
52291;BME280;39663;45.432;28.050;2023-07-20T02:04:33;100404.44;;;26.27;42.57
52291;BME280;39663;45.432;28.050;2023-07-20T02:05:04;100405.75;;;26.27;42.40
52291;BME280;39663;45.432;28.050;2023-07-20T02:05:36;100404.87;;;26.35;42.44
52291;BME280;39663;45.432;28.050;2023-07-20T02:06:07;100406.26;;;26.41;42.20
52291;BME280;39663;45.432;28.050;2023-07-20T02:06:39;100406.69;;;26.50;42.11
52291;BME280;39663;45.432;28.050;2023-07-20T02:07:10;100406.13;;;26.43;42.53
52291;BME280;39663;45.432;28.050;2023-07-20T02:07:41;100405.71;;;26.42;42.25
52291;BME280;39663;45.432;28.050;2023-07-20T02:08:13;100406.26;;;26.43;42.46
52291;BME280;39663;45.432;28.050;2023-07-20T02:08:44;100406.26;;;26.48;42.32
52291;BME280;39663;45.432;28.050;2023-07-20T02:09:16;100404.19;;;26.56;42.19
52291;BME280;39663;45.432;28.050;2023-07-20T02:09:47;100405.84;;;26.48;42.22
52291;BME280;39663;45.432;28.050;2023-07-20T02:10:19;100404.44;;;26.44;42.30
52291;BME280;39663;45.432;28.050;2023-07-20T02:10:51;100402.71;;;26.45;42.05
52291;BME280;39663;45.432;28.050;2023-07-20T02:11:22;100402.76;;;26.31;41.95
52291;BME280;39663;45.432;28.050;2023-07-20T02:11:54;100405.05;;;26.30;41.91
52291;BME280;39663;45.432;28.050;2023-07-20T02:12:25;100405.52;;;26.93;41.89
52291;BME280;39663;45.432;28.050;2023-07-20T02:12:57;100406.86;;;26.51;41.86
52291;BME280;39663;45.432;28.050;2023-07-20T02:13:28;100407.94;;;26.57;41.95
52291;BME280;39663;45.432;28.050;2023-07-20T02:13:59;100407.57;;;26.44;42.12
52291;BME280;39663;45.432;28.050;2023-07-20T02:14:31;100408.78;;;26.47;42.22
52291;BME280;39663;45.432;28.050;2023-07-20T02:15:03;100409.09;;;26.33;42.47
52291;BME280;39663;45.432;28.050;2023-07-20T02:15:35;100413.70;;;26.33;42.59
52291;BME280;39663;45.432;28.050;2023-07-20T02:16:06;100415.51;;;26.33;42.63
52291;BME280;39663;45.432;28.050;2023-07-20T02:16:38;100413.53;;;26.37;43.00
52291;BME280;39663;45.432;28.050;2023-07-20T02:17:09;100414.63;;;26.52;42.98
52291;BME280;39663;45.432;28.050;2023-07-20T02:17:40;100418.23;;;26.40;43.25
52291;BME280;39663;45.432;28.050;2023-07-20T02:18:12;100418.94;;;26.46;43.56
52291;BME280;39663;45.432;28.050;2023-07-20T02:18:43;100418.94;;;26.25;43.36
52291;BME280;39663;45.432;28.050;2023-07-20T02:19:15;100421.31;;;26.51;43.75
52291;BME280;39663;45.432;28.050;2023-07-20T02:19:46;100423.49;;;26.49;43.42
52291;BME280;39663;45.432;28.050;2023-07-20T02:20:18;100424.47;;;26.68;43.59
52291;BME280;39663;45.432;28.050;2023-07-20T02:20:52;100424.60;;;26.53;43.70
52291;BME280;39663;45.432;28.050;2023-07-20T02:21:24;100425.61;;;26.62;43.34
52291;BME280;39663;45.432;28.050;2023-07-20T02:21:55;100426.90;;;26.43;43.43
52291;BME280;39663;45.432;28.050;2023-07-20T02:22:26;100425.99;;;26.67;43.29
52291;BME280;39663;45.432;28.050;2023-07-20T02:22:58;100426.33;;;26.47;43.38
52291;BME280;39663;45.432;28.050;2023-07-20T02:23:30;100423.48;;;26.71;43.16
52291;BME280;39663;45.432;28.050;2023-07-20T02:24:01;100422.65;;;26.72;43.17
52291;BME280;39663;45.432;28.050;2023-07-20T02:24:33;100419.87;;;26.78;42.98
52291;BME280;39663;45.432;28.050;2023-07-20T02:25:05;100416.67;;;26.81;42.92
52291;BME280;39663;45.432;28.050;2023-07-20T02:25:37;100417.28;;;26.85;42.74
52291;BME280;39663;45.432;28.050;2023-07-20T02:26:08;100412.88;;;26.95;42.60
52291;BME280;39663;45.432;28.050;2023-07-20T02:26:40;100411.64;;;26.91;42.69
52291;BME280;39663;45.432;28.050;2023-07-20T02:27:11;100407.88;;;27.01;42.47
52291;BME280;39663;45.432;28.050;2023-07-20T02:27:42;100405.85;;;26.95;42.75
52291;BME280;39663;45.432;28.050;2023-07-20T02:28:14;100403.34;;;26.96;42.75
52291;BME280;39663;45.432;28.050;2023-07-20T02:28:46;100402.44;;;26.97;42.53
52291;BME280;39663;45.432;28.050;2023-07-20T02:29:18;100401.28;;;26.79;42.67
52291;BME280;39663;45.432;28.050;2023-07-20T02:29:49;100401.79;;;26.96;42.45
52291;BME280;39663;45.432;28.050;2023-07-20T02:30:21;100401.23;;;27.02;42.24
52291;BME280;39663;45.432;28.050;2023-07-20T02:30:52;100401.78;;;26.85;42.44
52291;BME280;39663;45.432;28.050;2023-07-20T02:31:24;100401.44;;;26.82;42.14
52291;BME280;39663;45.432;28.050;2023-07-20T02:31:55;100401.72;;;27.03;42.02
52291;BME280;39663;45.432;28.050;2023-07-20T02:32:27;100406.02;;;26.98;42.26
52291;BME280;39663;45.432;28.050;2023-07-20T02:32:59;100405.81;;;26.95;42.58
52291;BME280;39663;45.432;28.050;2023-07-20T02:33:30;100407.96;;;26.98;42.47
52291;BME280;39663;45.432;28.050;2023-07-20T02:34:01;100411.70;;;27.01;41.89
52291;BME280;39663;45.432;28.050;2023-07-20T02:34:33;100412.58;;;26.81;41.90
52291;BME280;39663;45.432;28.050;2023-07-20T02:35:05;100415.57;;;27.04;41.41
52291;BME280;39663;45.432;28.050;2023-07-20T02:35:37;100421.34;;;26.97;41.68
52291;BME280;39663;45.432;28.050;2023-07-20T02:36:08;100424.48;;;26.91;42.42
52291;BME280;39663;45.432;28.050;2023-07-20T02:36:39;100427.00;;;26.88;42.31
52291;BME280;39663;45.432;28.050;2023-07-20T02:37:11;100427.58;;;26.63;42.27
52291;BME280;39663;45.432;28.050;2023-07-20T02:37:42;100429.11;;;26.67;42.49
52291;BME280;39663;45.432;28.050;2023-07-20T02:38:14;100429.55;;;27.14;42.07
52291;BME280;39663;45.432;28.050;2023-07-20T02:38:45;100430.11;;;26.94;41.74
52291;BME280;39663;45.432;28.050;2023-07-20T02:39:17;100426.47;;;26.99;42.31
52291;BME280;39663;45.432;28.050;2023-07-20T02:39:48;100425.95;;;27.03;42.33
52291;BME280;39663;45.432;28.050;2023-07-20T02:40:20;100423.78;;;26.88;42.21
52291;BME280;39663;45.432;28.050;2023-07-20T02:40:51;100423.13;;;27.07;42.03
52291;BME280;39663;45.432;28.050;2023-07-20T02:41:23;100424.31;;;26.98;41.80
52291;BME280;39663;45.432;28.050;2023-07-20T02:41:54;100421.53;;;27.00;40.90
52291;BME280;39663;45.432;28.050;2023-07-20T02:42:26;100423.37;;;27.19;40.42
52291;BME280;39663;45.432;28.050;2023-07-20T02:42:57;100423.84;;;27.23;40.52
52291;BME280;39663;45.432;28.050;2023-07-20T02:43:29;100423.34;;;27.18;39.82
52291;BME280;39663;45.432;28.050;2023-07-20T02:44:00;100422.38;;;26.94;39.95
52291;BME280;39663;45.432;28.050;2023-07-20T02:44:31;100423.54;;;26.93;40.43
52291;BME280;39663;45.432;28.050;2023-07-20T02:45:04;100422.17;;;27.01;40.25
52291;BME280;39663;45.432;28.050;2023-07-20T02:45:39;100422.40;;;27.01;40.13
52291;BME280;39663;45.432;28.050;2023-07-20T02:46:11;100418.77;;;27.02;40.19
52291;BME280;39663;45.432;28.050;2023-07-20T02:46:42;100418.58;;;26.79;40.18
52291;BME280;39663;45.432;28.050;2023-07-20T02:47:13;100418.16;;;26.96;40.34
52291;BME280;39663;45.432;28.050;2023-07-20T02:47:45;100415.50;;;26.90;40.63
52291;BME280;39663;45.432;28.050;2023-07-20T02:48:16;100415.79;;;26.81;41.02
52291;BME280;39663;45.432;28.050;2023-07-20T02:48:48;100414.80;;;26.84;40.88
52291;BME280;39663;45.432;28.050;2023-07-20T02:49:19;100416.67;;;26.84;40.91
52291;BME280;39663;45.432;28.050;2023-07-20T02:49:51;100418.40;;;26.82;40.87
52291;BME280;39663;45.432;28.050;2023-07-20T02:50:22;100420.39;;;26.74;41.04
52291;BME280;39663;45.432;28.050;2023-07-20T02:50:54;100421.81;;;26.78;41.01
52291;BME280;39663;45.432;28.050;2023-07-20T02:51:25;100422.65;;;26.74;41.09
52291;BME280;39663;45.432;28.050;2023-07-20T02:51:57;100423.84;;;26.70;41.03
52291;BME280;39663;45.432;28.050;2023-07-20T02:52:28;100422.14;;;26.84;41.19
52291;BME280;39663;45.432;28.050;2023-07-20T02:53:00;100420.05;;;26.53;41.35
52291;BME280;39663;45.432;28.050;2023-07-20T02:53:31;100418.76;;;26.53;40.99
52291;BME280;39663;45.432;28.050;2023-07-20T02:54:03;100418.78;;;26.56;41.63
52291;BME280;39663;45.432;28.050;2023-07-20T02:54:34;100417.65;;;26.49;41.79
52291;BME280;39663;45.432;28.050;2023-07-20T02:55:06;100417.38;;;26.46;41.66